메인 페이지
METAR-TAF:

METAR-TAF

공항 :

Altus Air Force Base

Altus, 오클라호마, 미국

위도: 34-39N, 경도: 099-16W, 고도: 420m

현재 날씨관측

예보는 59분 전, 05:56시(UTC)에 발표되었습니다.
11kt
온도 1°C
습도 75%
기압 1025 hPa
시정: 16.1km
고도 1200ft 상공 흐림

METAR: KLTS 180556Z AUTO 35011KT 10SM OVC012 01/M03 A3027 RMK AO2 SLP253 T00141027 10048 20014 401640000 52016 $

시각: 00:55 (06:55 UTC)

예보

예보는 29 시간 55분 전, 01:00시(UTC)에 발표되었습니다.
예보 대상 시간: 17일 01시부터 18일 07시까지 (UTC)
9kt
시정: 1721m
고도 31000ft 상공 구름 조금
전환 중
18일 02시부터 18일 03시까지 (UTC)
10kt, 순간 최대 풍속 15kt
시정: 1909m
고도 2000ft 상공 구름 보통
고도 3500ft 상공 구름 많음

TAF: KLTS 170100Z 1701/1807 14009KT 9999 FEW310 QNH2997INS WND 36009KT AFT 1721 BECMG 1802/1803 01010G15KT 9999 SCT020 BKN035 QNH3018INS TX13/1720Z TN06/1712Z LAST NO AMDS AFT 1708 NEXT 1909

4,000개 이상의 공항 관측 자료 및 예보 (METAR 및 TAF 보고).

지도상에서 검색 가능한 기상관측소가 노란 점과 빨간 점으로 표시되어 있습니다.

기상관측소 명을 보려면 표시 위로 마우스를 이동하세요.

날씨 관측과 예보를 보려면 클릭하세요.

지도 변경 : 확대하려면 엑스 표시가 있는 녹색 버튼, 축소하려면 빼기 표시가 있는 녹색 버튼, 다음 페이지의 지도를 보려면 녹색 화살표를 클릭하세요.


METAR-TAF: